Terminal Aerodrome Forecast
Issued by NWS

Home | Current Version | Previous Version | Text Only | Print | Product List | Glossary On
Versions: 1 2 3 4 5 6 7 8 9 10 11 12 13 14 15 16 17 18 19 20
801
FTUS44 KCRP 042333
TAFALI
TAF
KALI 042333Z 0500/0524 02015KT 3SM SHRA BR OVC008
      TEMPO 0505/0509 2SM TSRA BR OVC008CB
     FM051000 33014KT P6SM -RA OVC008
     FM051500 32014KT P6SM OVC015
     FM052000 30015KT P6SM BKN040=

USA.gov is the U.S. government's official web portal to all federal, state and local government web resources and services.